createdAt,value
2018-12-01T00:00:25.262Z,10.70
2018-12-01T00:02:53.441Z,10.70
2018-12-01T00:05:21.591Z,10.70
2018-12-01T00:07:50.201Z,10.60
2018-12-01T00:10:18.395Z,10.60
2018-12-01T00:12:46.603Z,10.60
2018-12-01T00:15:17.986Z,10.60
2018-12-01T00:17:46.168Z,10.60
2018-12-01T00:20:20.695Z,10.60
2018-12-01T00:22:48.875Z,10.50
2018-12-01T00:25:17.052Z,10.50
2018-12-01T00:27:45.216Z,10.50
2018-12-01T00:30:14.510Z,10.50
2018-12-01T00:32:43.016Z,10.50
2018-12-01T00:35:11.992Z,10.50
2018-12-01T00:37:40.228Z,10.50
2018-12-01T00:40:10.192Z,10.50
2018-12-01T00:42:38.389Z,10.50
2018-12-01T00:45:08.134Z,10.50
2018-12-01T00:47:36.348Z,10.50
2018-12-01T00:50:12.874Z,10.50
2018-12-01T00:52:41.123Z,10.50
2018-12-01T00:55:11.621Z,10.50
2018-12-01T00:57:39.775Z,10.50
2018-12-01T01:00:16.468Z,10.40
2018-12-01T01:02:50.785Z,10.50
2018-12-01T01:05:19.356Z,10.50
2018-12-01T01:07:47.516Z,10.50
2018-12-01T01:10:15.697Z,10.50
2018-12-01T01:12:43.860Z,10.50
2018-12-01T01:15:12.245Z,10.50
2018-12-01T01:17:40.406Z,10.50
2018-12-01T01:20:13.760Z,10.50
2018-12-01T01:22:41.908Z,10.50
2018-12-01T01:25:11.103Z,10.40
2018-12-01T01:27:39.296Z,10.40
2018-12-01T01:30:18.194Z,10.40
2018-12-01T01:32:46.422Z,10.40
2018-12-01T01:35:14.580Z,10.40
2018-12-01T01:37:42.745Z,10.40
2018-12-01T01:40:12.789Z,10.40
2018-12-01T01:42:40.998Z,10.40
2018-12-01T01:45:16.868Z,10.40
2018-12-01T01:47:45.063Z,10.40
2018-12-01T01:50:15.458Z,10.30
2018-12-01T01:52:43.612Z,10.40
2018-12-01T01:55:12.111Z,10.40
2018-12-01T01:57:40.484Z,10.30
2018-12-01T02:00:13.115Z,10.30
2018-12-01T02:02:44.645Z,10.30
2018-12-01T02:05:12.871Z,10.30
2018-12-01T02:07:41.010Z,10.30
2018-12-01T02:10:09.964Z,10.30
2018-12-01T02:12:38.136Z,10.20
2018-12-01T02:15:07.444Z,10.20
2018-12-01T02:17:35.614Z,10.20
2018-12-01T02:20:04.625Z,10.10
2018-12-01T02:22:32.784Z,10.10
2018-12-01T02:25:00.944Z,10.10
2018-12-01T02:27:29.147Z,10.10
2018-12-01T02:29:57.321Z,10.10
2018-12-01T02:32:25.475Z,10.10
2018-12-01T02:34:53.631Z,10.10
2018-12-01T02:37:21.797Z,10.00
2018-12-01T02:39:49.962Z,10.10
2018-12-01T02:42:18.104Z,10.00
2018-12-01T02:45:07.406Z,10.00
2018-12-01T02:47:35.549Z,10.00
2018-12-01T02:50:04.748Z,10.00
2018-12-01T02:52:32.918Z,10.00
2018-12-01T02:55:01.067Z,10.00
2018-12-01T02:57:29.248Z,10.00
2018-12-01T02:59:57.418Z,10.00
2018-12-01T03:02:25.632Z,10.00
2018-12-01T03:04:53.836Z,10.00
2018-12-01T03:07:22.033Z,10.00
2018-12-01T03:09:50.197Z,10.00
2018-12-01T03:12:18.385Z,10.00
2018-12-01T03:14:46.576Z,10.00
2018-12-01T03:17:14.735Z,10.00
2018-12-01T03:19:42.903Z,10.00
2018-12-01T03:22:11.096Z,10.00
2018-12-01T03:24:39.271Z,10.00
2018-12-01T03:27:07.471Z,10.00
2018-12-01T03:29:35.632Z,10.00
2018-12-01T03:32:03.821Z,10.00
2018-12-01T03:34:32.021Z,10.00
2018-12-01T03:37:00.199Z,10.00
2018-12-01T03:39:28.396Z,10.00
2018-12-01T03:41:56.571Z,10.00
2018-12-01T03:44:24.748Z,9.90
2018-12-01T03:46:52.918Z,9.90
2018-12-01T03:49:21.825Z,9.90
2018-12-01T03:51:49.318Z,9.90
2018-12-01T03:54:17.518Z,9.90
2018-12-01T03:56:45.718Z,9.90
2018-12-01T03:59:13.884Z,9.90
2018-12-01T04:01:42.076Z,9.90
2018-12-01T04:04:10.263Z,9.90
2018-12-01T04:06:38.440Z,9.80
2018-12-01T04:09:13.602Z,9.90
2018-12-01T04:11:42.660Z,9.80
2018-12-01T04:14:10.847Z,9.80
2018-12-01T04:16:39.015Z,9.90
2018-12-01T04:19:07.186Z,9.90
2018-12-01T04:21:35.414Z,9.80
2018-12-01T04:24:03.713Z,9.90
2018-12-01T04:26:31.881Z,9.80
2018-12-01T04:29:00.081Z,9.90
2018-12-01T04:31:28.297Z,9.80
2018-12-01T04:33:56.473Z,9.80
2018-12-01T04:36:25.564Z,9.80
2018-12-01T04:38:53.735Z,9.80
2018-12-01T04:41:22.079Z,9.80
2018-12-01T04:43:50.286Z,9.80
2018-12-01T04:46:18.459Z,9.90
2018-12-01T04:48:46.672Z,9.80
2018-12-01T04:51:14.867Z,9.90
2018-12-01T04:53:43.028Z,9.90
2018-12-01T04:56:11.258Z,9.90
2018-12-01T04:58:39.413Z,9.90
2018-12-01T05:01:07.600Z,9.90
2018-12-01T05:03:35.758Z,9.90
2018-12-01T05:06:04.052Z,9.90
2018-12-01T05:08:32.254Z,9.90
2018-12-01T05:11:00.419Z,9.90
2018-12-01T05:13:28.599Z,9.90
2018-12-01T05:15:56.760Z,9.80
2018-12-01T05:18:24.932Z,9.80
2018-12-01T05:20:53.102Z,9.80
2018-12-01T05:23:21.284Z,9.90
2018-12-01T05:25:49.460Z,9.90
2018-12-01T05:28:17.725Z,9.90
2018-12-01T05:30:45.912Z,10.00
2018-12-01T05:33:14.102Z,10.00
2018-12-01T05:35:42.271Z,10.00
2018-12-01T05:38:10.435Z,10.00
2018-12-01T05:40:38.628Z,10.00
2018-12-01T05:43:06.853Z,10.00
2018-12-01T05:45:35.016Z,10.00
2018-12-01T05:48:03.212Z,10.00
2018-12-01T05:50:31.386Z,10.00
2018-12-01T05:52:59.570Z,10.00
2018-12-01T05:55:27.792Z,10.00
2018-12-01T05:57:55.990Z,10.00
2018-12-01T06:00:24.195Z,10.00
2018-12-01T06:02:52.388Z,10.00
2018-12-01T06:05:20.551Z,10.00
2018-12-01T06:07:48.716Z,10.00
2018-12-01T06:10:21.957Z,10.00
2018-12-01T06:12:52.977Z,10.00
2018-12-01T06:15:21.543Z,10.00
2018-12-01T06:17:49.744Z,10.00
2018-12-01T06:20:22.004Z,10.00
2018-12-01T06:22:50.186Z,10.00
2018-12-01T06:25:19.546Z,10.00
2018-12-01T06:27:47.709Z,10.00
2018-12-01T06:30:17.768Z,10.00
2018-12-01T06:32:46.570Z,10.00
2018-12-01T06:35:14.756Z,10.00
2018-12-01T06:37:42.950Z,10.00
2018-12-01T06:40:13.426Z,10.00
2018-12-01T06:42:41.655Z,10.10
2018-12-01T06:45:10.925Z,10.00
2018-12-01T06:47:39.324Z,10.10
2018-12-01T06:50:13.496Z,10.10
2018-12-01T06:52:41.668Z,10.10
2018-12-01T06:55:11.140Z,10.10
2018-12-01T06:57:39.387Z,10.10
2018-12-01T07:00:12.840Z,10.10
2018-12-01T07:02:41.532Z,10.10
2018-12-01T07:05:10.755Z,10.10
2018-12-01T07:07:38.931Z,10.20
2018-12-01T07:10:09.438Z,10.10
2018-12-01T07:12:37.653Z,10.10
2018-12-01T07:15:08.239Z,10.10
2018-12-01T07:17:36.442Z,10.20
2018-12-01T07:20:05.706Z,10.20
2018-12-01T07:22:33.871Z,10.20
2018-12-01T07:25:02.051Z,10.20
2018-12-01T07:27:30.204Z,10.20
2018-12-01T07:29:58.389Z,10.20
2018-12-01T07:32:26.550Z,10.20
2018-12-01T07:34:54.732Z,10.20
2018-12-01T07:37:22.903Z,10.20
2018-12-01T07:39:51.085Z,10.20
2018-12-01T07:42:19.311Z,10.20
2018-12-01T07:44:47.485Z,10.20
2018-12-01T07:47:15.739Z,10.30
2018-12-01T07:49:43.921Z,10.30
2018-12-01T07:52:12.089Z,10.40
2018-12-01T07:54:40.294Z,10.40
2018-12-01T07:57:08.452Z,10.40
2018-12-01T07:59:36.639Z,10.50
2018-12-01T08:02:05.178Z,10.50
2018-12-01T08:04:33.423Z,10.50
2018-12-01T08:07:01.714Z,10.60
2018-12-01T08:09:29.916Z,10.60
2018-12-01T08:11:58.576Z,10.70
2018-12-01T08:14:26.760Z,10.70
2018-12-01T08:16:54.968Z,10.70
2018-12-01T08:19:23.159Z,10.70
2018-12-01T08:21:51.328Z,10.70
2018-12-01T08:24:19.496Z,10.70
2018-12-01T08:26:47.673Z,10.70
2018-12-01T08:29:15.845Z,10.70
2018-12-01T08:31:44.028Z,10.70
2018-12-01T08:34:12.211Z,10.70
2018-12-01T08:36:40.387Z,10.70
2018-12-01T08:39:08.996Z,10.70
2018-12-01T08:41:37.357Z,10.60
2018-12-01T08:44:05.540Z,10.60
2018-12-01T08:46:33.700Z,10.60
2018-12-01T08:49:01.884Z,10.60
2018-12-01T08:51:30.123Z,10.60
2018-12-01T08:53:58.300Z,10.60
2018-12-01T08:56:26.528Z,10.60
2018-12-01T08:58:54.727Z,10.70
2018-12-01T09:01:22.916Z,10.70
2018-12-01T09:03:51.084Z,10.70
2018-12-01T09:06:19.268Z,10.80
2018-12-01T09:08:47.472Z,10.80
2018-12-01T09:11:15.664Z,10.90
2018-12-01T09:13:43.865Z,11.00
2018-12-01T09:16:12.040Z,11.00
2018-12-01T09:18:40.233Z,11.10
2018-12-01T09:21:08.412Z,11.20
2018-12-01T09:23:36.579Z,11.30
2018-12-01T09:26:04.807Z,11.50
2018-12-01T09:28:33.034Z,11.70
2018-12-01T09:31:01.309Z,12.00
2018-12-01T09:33:29.535Z,12.20
2018-12-01T09:35:57.766Z,12.40
2018-12-01T09:38:25.945Z,12.70
2018-12-01T09:40:54.136Z,12.80
2018-12-01T09:43:22.319Z,12.80
2018-12-01T09:45:50.521Z,12.80
2018-12-01T09:48:18.713Z,12.80
2018-12-01T09:50:46.938Z,12.70
2018-12-01T09:53:15.113Z,12.70
2018-12-01T09:55:43.305Z,12.70
2018-12-01T09:58:11.508Z,12.90
2018-12-01T10:00:39.707Z,13.10
2018-12-01T10:03:08.564Z,13.60
2018-12-01T10:05:36.743Z,14.20
2018-12-01T10:08:05.257Z,14.70
2018-12-01T10:10:33.511Z,15.10
2018-12-01T10:13:01.709Z,15.30
2018-12-01T10:15:33.324Z,15.50
2018-12-01T10:18:01.512Z,15.40
2018-12-01T10:20:31.011Z,15.30
2018-12-01T10:22:59.911Z,15.20
2018-12-01T10:25:28.144Z,15.20
2018-12-01T10:27:56.341Z,15.50
2018-12-01T10:30:24.552Z,15.70
2018-12-01T10:32:52.956Z,15.70
2018-12-01T10:35:22.445Z,15.70
2018-12-01T10:37:54.969Z,15.90
2018-12-01T10:40:23.261Z,16.10
2018-12-01T10:42:51.457Z,16.10
2018-12-01T10:45:20.440Z,15.90
2018-12-01T10:47:48.645Z,15.60
2018-12-01T10:50:17.916Z,15.40
2018-12-01T10:52:46.700Z,15.20
2018-12-01T10:55:33.094Z,15.10
2018-12-01T10:58:09.721Z,15.00
2018-12-01T11:00:43.207Z,15.30
2018-12-01T11:03:16.897Z,15.50
2018-12-01T11:05:45.420Z,15.70
2018-12-01T11:08:14.744Z,15.70
2018-12-01T11:10:43.135Z,15.70
2018-12-01T11:13:11.355Z,15.50
2018-12-01T11:15:39.625Z,15.20
2018-12-01T11:18:07.821Z,15.00
2018-12-01T11:20:36.190Z,14.80
2018-12-01T11:23:04.734Z,14.60
2018-12-01T11:25:33.257Z,14.30
2018-12-01T11:28:01.492Z,14.10
2018-12-01T11:30:29.708Z,13.90
2018-12-01T11:32:57.907Z,13.70
2018-12-01T11:35:26.116Z,13.60
2018-12-01T11:37:54.328Z,13.40
2018-12-01T11:40:22.528Z,13.30
2018-12-01T11:42:50.749Z,13.20
2018-12-01T11:45:19.018Z,13.10
2018-12-01T11:47:47.228Z,13.00
2018-12-01T11:50:16.451Z,12.90
2018-12-01T11:52:45.339Z,12.90
2018-12-01T11:55:15.792Z,12.80
2018-12-01T11:57:43.999Z,12.70
2018-12-01T12:00:14.547Z,12.70
2018-12-01T12:02:42.800Z,12.60
2018-12-01T12:05:12.066Z,12.60
2018-12-01T12:07:51.516Z,12.60
2018-12-01T12:10:19.721Z,12.60
2018-12-01T12:12:47.913Z,12.60
2018-12-01T12:15:16.155Z,12.50
2018-12-01T12:17:45.891Z,12.50
2018-12-01T12:20:14.085Z,12.50
2018-12-01T12:22:42.391Z,12.50
2018-12-01T12:25:10.915Z,12.50
2018-12-01T12:27:39.148Z,12.50
2018-12-01T12:30:12.491Z,12.50
2018-12-01T12:32:40.741Z,12.50
2018-12-01T12:35:10.123Z,12.50
2018-12-01T12:37:38.328Z,12.50
2018-12-01T12:40:11.250Z,12.50
2018-12-01T12:42:39.448Z,12.50
2018-12-01T12:45:09.959Z,12.50
2018-12-01T12:47:38.220Z,12.50
2018-12-01T12:50:11.888Z,12.50
2018-12-01T12:52:40.180Z,12.50
2018-12-01T12:55:10.868Z,12.50
2018-12-01T12:57:39.095Z,12.50
2018-12-01T13:00:14.185Z,12.50
2018-12-01T13:02:43.630Z,12.60
2018-12-01T13:05:15.164Z,12.60
2018-12-01T13:07:43.557Z,12.60
2018-12-01T13:10:16.107Z,12.60
2018-12-01T13:12:44.411Z,12.60
2018-12-01T13:15:13.452Z,12.60
2018-12-01T13:17:41.644Z,12.60
2018-12-01T13:20:14.001Z,12.60
2018-12-01T13:22:42.271Z,12.60
2018-12-01T13:25:12.395Z,12.60
2018-12-01T13:27:42.021Z,12.60
2018-12-01T13:30:12.992Z,12.50
2018-12-01T13:32:41.226Z,12.50
2018-12-01T13:35:09.434Z,12.60
2018-12-01T13:37:37.709Z,12.60
2018-12-01T13:40:08.921Z,12.60
2018-12-01T13:42:37.164Z,12.60
2018-12-01T13:45:07.537Z,12.60
2018-12-01T13:47:35.774Z,12.60
2018-12-01T13:50:04.715Z,12.60
2018-12-01T13:52:32.913Z,12.60
2018-12-01T13:55:01.233Z,12.60
2018-12-01T13:57:29.455Z,12.60
2018-12-01T13:59:57.689Z,12.60
2018-12-01T14:02:25.888Z,12.60
2018-12-01T14:04:54.116Z,12.60
2018-12-01T14:07:22.313Z,12.50
2018-12-01T14:09:50.536Z,12.50
2018-12-01T14:12:18.735Z,12.60
2018-12-01T14:14:46.977Z,12.50
2018-12-01T14:17:15.184Z,12.50
2018-12-01T14:19:43.369Z,12.50
2018-12-01T14:22:11.643Z,12.50
2018-12-01T14:24:39.841Z,12.50
2018-12-01T14:27:08.062Z,12.50
2018-12-01T14:29:36.285Z,12.50
2018-12-01T14:32:04.481Z,12.50
2018-12-01T14:34:32.707Z,12.50
2018-12-01T14:37:00.946Z,12.50
2018-12-01T14:39:29.220Z,12.40
2018-12-01T14:41:57.367Z,12.50
2018-12-01T14:44:25.580Z,12.50
2018-12-01T14:46:53.803Z,12.50
2018-12-01T14:49:21.991Z,12.50
2018-12-01T14:51:50.240Z,12.40
2018-12-01T14:54:18.424Z,12.40
2018-12-01T14:56:46.603Z,12.40
2018-12-01T14:59:14.800Z,12.40
2018-12-01T15:01:42.986Z,12.40
2018-12-01T15:04:11.299Z,12.40
2018-12-01T15:06:39.601Z,12.40
2018-12-01T15:09:09.562Z,12.40
2018-12-01T15:11:38.567Z,12.40
2018-12-01T15:14:06.891Z,12.40
2018-12-01T15:16:35.072Z,12.30
2018-12-01T15:19:03.272Z,12.40
2018-12-01T15:21:31.482Z,12.40
2018-12-01T15:23:59.695Z,12.40
2018-12-01T15:26:27.857Z,12.40
2018-12-01T15:28:56.048Z,12.40
2018-12-01T15:31:24.281Z,12.40
2018-12-01T15:33:52.510Z,12.40
2018-12-01T15:36:20.875Z,12.40
2018-12-01T15:38:49.164Z,12.30
2018-12-01T15:41:18.378Z,12.30
2018-12-01T15:43:46.619Z,12.30
2018-12-01T15:46:14.776Z,12.30
2018-12-01T15:48:42.963Z,12.30
2018-12-01T15:51:11.158Z,12.30
2018-12-01T15:53:39.379Z,12.30
2018-12-01T15:56:07.623Z,12.30
2018-12-01T15:58:35.815Z,12.20
2018-12-01T16:01:03.994Z,12.20
2018-12-01T16:03:32.177Z,12.20
2018-12-01T16:06:00.409Z,12.30
2018-12-01T16:08:28.636Z,12.30
2018-12-01T16:10:56.813Z,12.30
2018-12-01T16:13:25.913Z,12.30
2018-12-01T16:15:59.511Z,12.30
2018-12-01T16:18:27.758Z,12.30
2018-12-01T16:20:55.980Z,12.30
2018-12-01T16:23:24.173Z,12.30
2018-12-01T16:25:52.346Z,12.30
2018-12-01T16:28:20.509Z,12.30
2018-12-01T16:30:48.699Z,12.30
2018-12-01T16:33:18.833Z,12.30
2018-12-01T16:35:46.331Z,12.30
2018-12-01T16:38:20.385Z,12.30
2018-12-01T16:40:54.820Z,12.30
2018-12-01T16:43:23.088Z,12.30
2018-12-01T16:45:51.953Z,12.30
2018-12-01T16:48:20.618Z,12.30
2018-12-01T16:50:48.795Z,12.30
2018-12-01T16:53:18.388Z,12.30
2018-12-01T16:55:46.614Z,12.30
2018-12-01T16:58:14.805Z,12.30
2018-12-01T17:00:43.253Z,12.30
2018-12-01T17:03:12.052Z,12.30
2018-12-01T17:05:45.168Z,12.30
2018-12-01T17:08:13.354Z,12.30
2018-12-01T17:10:41.641Z,12.20
2018-12-01T17:13:09.874Z,12.20
2018-12-01T17:15:38.125Z,12.20
2018-12-01T17:18:07.922Z,12.20
2018-12-01T17:20:36.195Z,12.20
2018-12-01T17:23:06.853Z,12.20
2018-12-01T17:25:35.116Z,12.20
2018-12-01T17:28:03.356Z,12.20
2018-12-01T17:30:31.580Z,12.20
2018-12-01T17:33:00.254Z,12.20
2018-12-01T17:35:29.756Z,12.20
2018-12-01T17:38:00.987Z,12.10
2018-12-01T17:40:35.864Z,12.10
2018-12-01T17:43:05.237Z,12.10
2018-12-01T17:45:33.413Z,12.10
2018-12-01T17:48:01.603Z,12.10
2018-12-01T17:50:29.817Z,12.10
2018-12-01T17:52:58.011Z,12.10
2018-12-01T17:55:27.554Z,12.10
2018-12-01T17:57:55.857Z,12.10
2018-12-01T18:00:26.499Z,12.10
2018-12-01T18:02:56.783Z,12.10
2018-12-01T18:05:42.740Z,12.10
2018-12-01T18:08:16.345Z,12.10
2018-12-01T18:10:45.797Z,12.10
2018-12-01T18:13:13.963Z,12.10
2018-12-01T18:15:43.149Z,12.00
2018-12-01T18:18:11.377Z,12.00
2018-12-01T18:20:39.576Z,12.00
2018-12-01T18:23:09.429Z,12.10
2018-12-01T18:25:42.620Z,12.10
2018-12-01T18:28:12.615Z,12.00
2018-12-01T18:30:41.409Z,12.00
2018-12-01T18:33:12.148Z,12.00
2018-12-01T18:35:40.686Z,11.90
2018-12-01T18:38:09.803Z,11.90
2018-12-01T18:40:38.026Z,11.80
2018-12-01T18:43:06.932Z,11.80
2018-12-01T18:45:35.261Z,11.80
2018-12-01T18:48:03.580Z,11.70
2018-12-01T18:50:31.891Z,11.70
2018-12-01T18:53:02.380Z,11.70
2018-12-01T18:55:32.669Z,11.70
2018-12-01T18:58:00.937Z,11.70
2018-12-01T19:00:34.484Z,11.70
2018-12-01T19:03:02.680Z,11.60
2018-12-01T19:05:30.866Z,11.60
2018-12-01T19:07:59.056Z,11.60
2018-12-01T19:10:27.247Z,11.60
2018-12-01T19:12:55.463Z,11.60
2018-12-01T19:15:23.741Z,11.60
2018-12-01T19:17:51.956Z,11.50
2018-12-01T19:20:20.140Z,11.50
2018-12-01T19:22:49.117Z,11.50
2018-12-01T19:25:20.243Z,11.50
2018-12-01T19:27:48.952Z,11.50
2018-12-01T19:30:18.988Z,11.50
2018-12-01T19:32:52.361Z,11.50
2018-12-01T19:35:20.541Z,11.50
2018-12-01T19:37:49.967Z,11.50
2018-12-01T19:40:28.701Z,11.50
2018-12-01T19:42:54.608Z,11.50
2018-12-01T19:45:22.881Z,11.50
2018-12-01T19:47:51.208Z,11.50
2018-12-01T19:50:22.552Z,11.50
2018-12-01T19:52:50.780Z,11.50
2018-12-01T19:55:21.500Z,11.50
2018-12-01T19:57:49.763Z,11.50
2018-12-01T20:00:19.176Z,11.50
2018-12-01T20:02:47.543Z,11.50
2018-12-01T20:05:16.874Z,11.50
2018-12-01T20:07:45.284Z,11.50
2018-12-01T20:10:22.643Z,11.50
2018-12-01T20:12:53.252Z,11.50
2018-12-01T20:15:27.078Z,11.60
2018-12-01T20:17:55.325Z,11.50
2018-12-01T20:20:23.598Z,11.60
2018-12-01T20:22:51.788Z,11.60
2018-12-01T20:25:20.009Z,11.60
2018-12-01T20:27:48.250Z,11.60
2018-12-01T20:30:19.788Z,11.60
2018-12-01T20:32:48.066Z,11.70
2018-12-01T20:35:18.669Z,11.70
2018-12-01T20:37:50.145Z,11.60
2018-12-01T20:40:18.436Z,11.70
2018-12-01T20:42:46.719Z,11.70
2018-12-01T20:45:14.892Z,11.70
2018-12-01T20:47:43.097Z,11.70
2018-12-01T20:50:15.230Z,11.70
2018-12-01T20:52:44.820Z,11.60
2018-12-01T20:55:17.501Z,11.60
2018-12-01T20:57:50.603Z,11.60
2018-12-01T21:00:18.820Z,11.60
2018-12-01T21:02:47.008Z,11.60
2018-12-01T21:05:16.939Z,11.60
2018-12-01T21:07:45.124Z,11.60
2018-12-01T21:10:17.176Z,11.60
2018-12-01T21:12:45.439Z,11.50
2018-12-01T21:15:13.996Z,11.50
2018-12-01T21:17:43.139Z,11.50
2018-12-01T21:20:12.532Z,11.50
2018-12-01T21:22:41.111Z,11.50
2018-12-01T21:25:11.496Z,11.50
2018-12-01T21:27:40.009Z,11.50
2018-12-01T21:30:19.782Z,11.50
2018-12-01T21:32:49.709Z,11.50
2018-12-01T21:35:18.340Z,11.50
2018-12-01T21:37:46.579Z,11.50
2018-12-01T21:40:16.283Z,11.50
2018-12-01T21:42:44.516Z,11.50
2018-12-01T21:45:14.705Z,11.50
2018-12-01T21:47:42.984Z,11.50
2018-12-01T21:50:13.448Z,11.50
2018-12-01T21:52:42.680Z,11.50
2018-12-01T21:55:11.625Z,11.50
2018-12-01T21:57:41.086Z,11.50
2018-12-01T22:00:17.464Z,11.50
2018-12-01T22:02:47.255Z,11.50
2018-12-01T22:05:18.124Z,11.50
2018-12-01T22:07:46.333Z,11.50
2018-12-01T22:10:15.536Z,11.50
2018-12-01T22:12:43.673Z,11.50
2018-12-01T22:15:17.202Z,11.50
2018-12-01T22:17:45.477Z,11.50
2018-12-01T22:20:19.895Z,11.60
2018-12-01T22:22:48.278Z,11.50
2018-12-01T22:25:16.430Z,11.60
2018-12-01T22:27:44.853Z,11.60
2018-12-01T22:30:18.131Z,11.60
2018-12-01T22:33:01.266Z,11.60
2018-12-01T22:35:29.912Z,11.60
2018-12-01T22:37:58.863Z,11.60
2018-12-01T22:40:29.419Z,11.60
2018-12-01T22:43:00.706Z,11.60
2018-12-01T22:45:28.896Z,11.60
2018-12-01T22:47:57.449Z,11.60
2018-12-01T22:50:25.654Z,11.60
2018-12-01T22:52:54.328Z,11.60
2018-12-01T22:55:23.819Z,11.60
2018-12-01T22:57:53.241Z,11.60
2018-12-01T23:00:22.643Z,11.60
2018-12-01T23:02:50.812Z,11.60
2018-12-01T23:05:19.000Z,11.60
2018-12-01T23:07:47.224Z,11.60
2018-12-01T23:10:16.308Z,11.70
2018-12-01T23:12:45.592Z,11.60
2018-12-01T23:15:14.965Z,11.60
2018-12-01T23:17:44.564Z,11.60
2018-12-01T23:20:17.033Z,11.60
2018-12-01T23:22:45.313Z,11.70
2018-12-01T23:25:13.491Z,11.70
2018-12-01T23:27:41.664Z,11.70
2018-12-01T23:30:16.818Z,11.70
2018-12-01T23:32:45.980Z,11.60
2018-12-01T23:35:14.221Z,11.60
2018-12-01T23:37:42.393Z,11.70
2018-12-01T23:40:11.770Z,11.70
2018-12-01T23:42:40.016Z,11.60
2018-12-01T23:45:15.206Z,11.70
2018-12-01T23:47:43.750Z,11.70
2018-12-01T23:50:15.003Z,11.70
2018-12-01T23:52:43.638Z,11.70
2018-12-01T23:55:12.880Z,11.70
2018-12-01T23:57:41.043Z,11.70
